9301 Mst — MST — position and weather

sailwx.info

Track history (hours):
 
Tides and Currents Weather Stations Pressure Air Temp Water Temp Dewpoint Dewpoint Depression Visibility Wind Speed Wind Dir Waves Ship Positions

9301 Mst

Last reported at 2018-Apr-19 01:03 UTC. Time now 2018-Jul-22 00:32 UTC.
Position N 34°09' W 119°13'.
Warning: this ship's position is months out of date.

Length 45 m; draft 2.1 m.

Type: Military. MMSI: 369970277.

Date/timePositionNaut miles runAvg speedWind from/ knotsBaromVisibWave heightAir tempDewpointWater temp
2018-Apr-19 01:03N 34°09' W 119°13'0 3.4
2018-Apr-19 01:00N 34°09' W 119°13'2 3.2
2018-Apr-19 00:30N 34°07' W 119°14'2 4.9
2018-Apr-19 00:00N 34°06' W 119°16'3 6.3
2018-Apr-18 23:30N 34°03' W 119°18'3 6.8
2018-Apr-18 23:00N 34°00' W 119°21'3 6.9
2018-Apr-18 22:30N 33°59' W 119°24'3 6.7
2018-Apr-18 22:00N 33°57' W 119°28'1 2.2
2018-Apr-18 21:29N 33°57' W 119°29'7 8.4
2018-Apr-18 20:42N 33°51' W 119°27'2 8.7
2018-Apr-18 20:30N 33°52' W 119°29'4 8.1
2018-Apr-18 19:57N 33°56' W 119°32'0 0.2
2018-Apr-18 19:24N 33°56' W 119°31'2 0.6
2018-Apr-18 16:41N 33°56' W 119°33'1 2.6
2018-Apr-18 16:12N 33°56' W 119°35'1 2.8
2018-Apr-18 15:56N 33°56' W 119°36'1 2.8
2018-Apr-18 15:30N 33°56' W 119°37'9 2.3
2018-Apr-18 11:51N 33°55' W 119°27'1 3.7
2018-Apr-18 11:30N 33°55' W 119°26'2 3.8
2018-Apr-18 11:00N 33°55' W 119°23'3 4.2
2018-Apr-18 10:14N 33°56' W 119°20'1 4.1
2018-Apr-18 09:57N 33°57' W 119°18'3 4.7
2018-Apr-18 09:18N 33°60' W 119°17'2 5.1
2018-Apr-18 09:00N 34°01' W 119°17'3 5.3
2018-Apr-18 08:25N 34°04' W 119°15'2 5.3
2018-Apr-18 08:00N 34°06' W 119°14'4 2.9
2018-Apr-18 06:46N 34°09' W 119°12'0 0.0
2018-Apr-18 06:28N 34°09' W 119°12'0 0.0
2018-Apr-18 05:59N 34°09' W 119°12'0 0.0
2018-Apr-18 05:28N 34°09' W 119°12'0 0.0
2018-Apr-18 04:57N 34°09' W 119°12'0 0.0
2018-Apr-18 04:30N 34°09' W 119°12'0 0.0
2018-Apr-18 04:00N 34°09' W 119°12'0 0.0
2018-Apr-18 03:30N 34°09' W 119°12'0 0.0
2018-Apr-18 02:57N 34°09' W 119°12'0 0.0
2018-Apr-18 02:20N 34°09' W 119°12'0 0.0
2018-Apr-18 01:52N 34°09' W 119°12'0 0.0
2018-Apr-18 01:24N 34°09' W 119°12'0 0.0
2018-Apr-18 00:55N 34°09' W 119°12'0 0.0
2018-Apr-18 00:16N 34°09' W 119°12'0 0.0
2018-Apr-17 22:45N 34°09' W 119°12'0 0.0
2018-Apr-17 21:50N 34°09' W 119°12'0 0.0
2018-Apr-17 21:26N 34°09' W 119°12'0 0.0
2018-Apr-17 20:59N 34°09' W 119°12'0 0.0
2018-Apr-17 20:30N 34°09' W 119°12'0 0.0
2018-Apr-17 19:59N 34°09' W 119°12'0 0.0
2018-Apr-17 19:28N 34°09' W 119°12'0 0.0
2018-Apr-17 18:59N 34°09' W 119°12'0 0.0
2018-Apr-17 18:26N 34°09' W 119°12'0 0.0
2018-Apr-17 17:59N 34°09' W 119°12'0 0.0
2018-Apr-17 17:30N 34°09' W 119°12'0 0.0
2018-Apr-17 17:00N 34°09' W 119°12'0 0.0
2018-Apr-17 16:30N 34°09' W 119°12'0 0.0
2018-Apr-17 16:00N 34°09' W 119°12'  
2018-Apr-13 22:45N 33°50' W 119°22'1 3.2
2018-Apr-13 22:30N 33°50' W 119°23'4 6.0
2018-Apr-13 21:55N 33°47' W 119°24'5 3.8
2018-Apr-13 20:36N 33°50' W 119°29'1 7.6
2018-Apr-13 20:30N 33°51' W 119°29'1 1.6
2018-Apr-13 19:59N 33°51' W 119°30'1 2.8
2018-Apr-13 19:30N 33°53' W 119°30'3 6.0
2018-Apr-13 19:00N 33°55' W 119°33'  
Track history (hours):
 
Tides and Currents Weather Stations Pressure Air Temp Water Temp Dewpoint Dewpoint Depression Visibility Wind Speed Wind Dir Waves Ship Positions

9301 Mst

Last reported at 2018-Apr-19 01:03 UTC. Time now 2018-Jul-22 00:33 UTC.
Position N 34°09' W 119°13'.
Warning: this ship's position is months out of date.

Length 45 m; draft 2.1 m.

Type: Military. MMSI: 369970277.

Date/timePositionNaut miles runAvg speedWind from/ knotsBaromVisibWave heightAir tempDewpointWater temp
2018-Apr-19 01:03N 34°09' W 119°13'0 3.4
2018-Apr-19 01:00N 34°09' W 119°13'2 3.2
2018-Apr-19 00:30N 34°07' W 119°14'2 4.9
2018-Apr-19 00:00N 34°06' W 119°16'3 6.3
2018-Apr-18 23:30N 34°03' W 119°18'3 6.8
2018-Apr-18 23:00N 34°00' W 119°21'3 6.9
2018-Apr-18 22:30N 33°59' W 119°24'3 6.7
2018-Apr-18 22:00N 33°57' W 119°28'1 2.2
2018-Apr-18 21:29N 33°57' W 119°29'7 8.4
2018-Apr-18 20:42N 33°51' W 119°27'2 8.7
2018-Apr-18 20:30N 33°52' W 119°29'4 8.1
2018-Apr-18 19:57N 33°56' W 119°32'0 0.2
2018-Apr-18 19:24N 33°56' W 119°31'2 0.6
2018-Apr-18 16:41N 33°56' W 119°33'1 2.6
2018-Apr-18 16:12N 33°56' W 119°35'1 2.8
2018-Apr-18 15:56N 33°56' W 119°36'1 2.8
2018-Apr-18 15:30N 33°56' W 119°37'9 2.3
2018-Apr-18 11:51N 33°55' W 119°27'1 3.7
2018-Apr-18 11:30N 33°55' W 119°26'2 3.8
2018-Apr-18 11:00N 33°55' W 119°23'3 4.2
2018-Apr-18 10:14N 33°56' W 119°20'1 4.1
2018-Apr-18 09:57N 33°57' W 119°18'3 4.7
2018-Apr-18 09:18N 33°60' W 119°17'2 5.1
2018-Apr-18 09:00N 34°01' W 119°17'3 5.3
2018-Apr-18 08:25N 34°04' W 119°15'2 5.3
2018-Apr-18 08:00N 34°06' W 119°14'4 2.9
2018-Apr-18 06:46N 34°09' W 119°12'0 0.0
2018-Apr-18 06:28N 34°09' W 119°12'0 0.0
2018-Apr-18 05:59N 34°09' W 119°12'0 0.0
2018-Apr-18 05:28N 34°09' W 119°12'0 0.0
2018-Apr-18 04:57N 34°09' W 119°12'0 0.0
2018-Apr-18 04:30N 34°09' W 119°12'0 0.0
2018-Apr-18 04:00N 34°09' W 119°12'0 0.0
2018-Apr-18 03:30N 34°09' W 119°12'0 0.0
2018-Apr-18 02:57N 34°09' W 119°12'0 0.0
2018-Apr-18 02:20N 34°09' W 119°12'0 0.0
2018-Apr-18 01:52N 34°09' W 119°12'0 0.0
2018-Apr-18 01:24N 34°09' W 119°12'0 0.0
2018-Apr-18 00:55N 34°09' W 119°12'0 0.0
2018-Apr-18 00:16N 34°09' W 119°12'0 0.0
2018-Apr-17 22:45N 34°09' W 119°12'0 0.0
2018-Apr-17 21:50N 34°09' W 119°12'0 0.0
2018-Apr-17 21:26N 34°09' W 119°12'0 0.0
2018-Apr-17 20:59N 34°09' W 119°12'0 0.0
2018-Apr-17 20:30N 34°09' W 119°12'0 0.0
2018-Apr-17 19:59N 34°09' W 119°12'0 0.0
2018-Apr-17 19:28N 34°09' W 119°12'0 0.0
2018-Apr-17 18:59N 34°09' W 119°12'0 0.0
2018-Apr-17 18:26N 34°09' W 119°12'0 0.0
2018-Apr-17 17:59N 34°09' W 119°12'0 0.0
2018-Apr-17 17:30N 34°09' W 119°12'0 0.0
2018-Apr-17 17:00N 34°09' W 119°12'0 0.0
2018-Apr-17 16:30N 34°09' W 119°12'0 0.0
2018-Apr-17 16:00N 34°09' W 119°12'  
2018-Apr-13 22:45N 33°50' W 119°22'1 3.2
2018-Apr-13 22:30N 33°50' W 119°23'4 6.0
2018-Apr-13 21:55N 33°47' W 119°24'5 3.8
2018-Apr-13 20:36N 33°50' W 119°29'1 7.6
2018-Apr-13 20:30N 33°51' W 119°29'1 1.6
2018-Apr-13 19:59N 33°51' W 119°30'1 2.8
2018-Apr-13 19:30N 33°53' W 119°30'3 6.0
2018-Apr-13 19:00N 33°55' W 119°33'  

Dump ship's entire track history